createdAt,value
2022-08-05T00:01:35.928Z,95424.16
2022-08-05T00:04:17.492Z,95444.25
2022-08-05T00:06:47.299Z,95444.69
2022-08-05T00:09:19.507Z,95430.06
2022-08-05T00:11:49.534Z,95438.63
2022-08-05T00:14:27.864Z,95436.72
2022-08-05T00:16:59.053Z,95438.97
2022-08-05T00:19:33.352Z,95436.16
2022-08-05T00:22:02.660Z,95386.28
2022-08-05T00:24:31.571Z,95423.72
2022-08-05T00:26:59.998Z,95428.81
2022-08-05T00:29:37.877Z,95432.50
2022-08-05T00:32:12.325Z,95422.94
2022-08-05T00:35:05.571Z,95418.56
2022-08-05T00:37:35.396Z,95421.13
2022-08-05T00:40:05.127Z,95419.78
2022-08-05T00:42:40.394Z,95418.78
2022-08-05T00:45:11.617Z,95390.25
2022-08-05T00:47:56.966Z,95422.28
2022-08-05T00:50:31.755Z,95413.63
2022-08-05T00:53:00.194Z,95415.09
2022-08-05T00:55:34.245Z,95410.69
2022-08-05T00:58:11.991Z,95413.28
2022-08-05T01:00:42.083Z,95418.00
2022-08-05T01:03:22.769Z,95411.63
2022-08-05T01:05:51.968Z,95416.66
2022-08-05T01:08:41.365Z,95419.81
2022-08-05T01:11:22.380Z,95416.41
2022-08-05T01:14:08.503Z,95421.34
2022-08-05T01:16:45.190Z,95405.75
2022-08-05T01:19:57.004Z,95393.16
2022-08-05T01:22:41.798Z,95423.59
2022-08-05T01:25:40.690Z,95416.53
2022-08-05T01:28:24.532Z,95422.94
2022-08-05T01:30:55.995Z,95422.72
2022-08-05T01:33:35.147Z,95422.47
2022-08-05T01:36:13.224Z,95411.47
2022-08-05T01:38:48.581Z,95418.50
2022-08-05T01:41:22.740Z,95423.47
2022-08-05T01:43:57.798Z,95353.19
2022-08-05T01:46:41.357Z,95422.28
2022-08-05T01:49:22.792Z,95418.28
2022-08-05T01:51:53.348Z,95423.91
2022-08-05T01:54:25.713Z,95425.84
2022-08-05T01:58:09.706Z,95423.59
2022-08-05T01:59:51.141Z,95427.19
2022-08-05T02:02:26.136Z,95429.41
2022-08-05T02:04:59.853Z,95385.66
2022-08-05T02:07:30.428Z,95415.25
2022-08-05T02:10:00.385Z,95416.28
2022-08-05T02:12:36.017Z,95423.91
2022-08-05T02:15:12.345Z,95422.81
2022-08-05T02:18:32.403Z,95416.84
2022-08-05T02:20:41.714Z,95422.63
2022-08-05T02:23:13.532Z,95431.56
2022-08-05T02:25:50.085Z,95428.72
2022-08-05T02:28:29.124Z,95421.59
2022-08-05T02:31:04.163Z,95422.78
2022-08-05T02:33:39.380Z,95423.03
2022-08-05T02:36:13.358Z,95426.00
2022-08-05T02:38:45.540Z,95423.69
2022-08-05T02:41:28.441Z,95419.75
2022-08-05T02:44:12.037Z,95399.47
2022-08-05T02:46:58.989Z,95409.03
2022-08-05T02:49:35.674Z,95412.19
2022-08-05T02:52:09.723Z,95418.59
2022-08-05T02:54:42.669Z,95420.00
2022-08-05T02:58:10.570Z,95413.78
2022-08-05T03:00:12.949Z,95416.06
2022-08-05T03:02:45.491Z,95414.47
2022-08-05T03:05:16.500Z,95412.13
2022-08-05T03:08:00.506Z,95413.13
2022-08-05T03:10:33.897Z,95419.28
2022-08-05T03:15:29.545Z,95412.78
2022-08-05T03:17:59.412Z,95420.19
2022-08-05T03:20:28.113Z,95413.44
2022-08-05T03:22:58.132Z,95410.69
2022-08-05T03:25:32.833Z,95341.34
2022-08-05T03:28:18.485Z,95418.31
2022-08-05T03:30:49.106Z,95415.63
2022-08-05T03:33:19.838Z,95418.31
2022-08-05T03:35:49.847Z,95419.81
2022-08-05T03:38:32.878Z,95417.13
2022-08-05T03:41:08.267Z,95413.25
2022-08-05T03:44:08.815Z,95404.78
2022-08-05T03:46:29.712Z,95419.41
2022-08-05T03:49:02.272Z,95415.72
2022-08-05T03:52:37.527Z,95422.72
2022-08-05T03:55:52.466Z,95419.41
2022-08-05T03:57:29.207Z,95432.78
2022-08-05T04:00:15.938Z,95429.88
2022-08-05T04:02:58.649Z,95427.72
2022-08-05T04:05:33.590Z,95428.94
2022-08-05T04:08:05.514Z,95427.06
2022-08-05T04:10:38.116Z,95421.91
2022-08-05T04:13:08.599Z,95422.03
2022-08-05T04:15:37.192Z,95423.97
2022-08-05T04:18:09.745Z,95430.19
2022-08-05T04:20:41.372Z,95431.59
2022-08-05T04:23:12.677Z,95423.03
2022-08-05T04:26:00.510Z,95432.09
2022-08-05T04:28:30.834Z,95380.31
2022-08-05T04:31:01.340Z,95425.16
2022-08-05T04:33:54.282Z,95426.56
2022-08-05T04:36:45.306Z,95422.63
2022-08-05T04:39:08.872Z,95432.88
2022-08-05T04:41:38.673Z,95429.25
2022-08-05T04:44:08.896Z,95433.06
2022-08-05T04:46:38.905Z,95432.59
2022-08-05T04:49:12.367Z,95429.94
2022-08-05T04:51:44.690Z,95419.38
2022-08-05T04:54:14.870Z,95426.47
2022-08-05T04:56:43.555Z,95426.00
2022-08-05T04:59:21.449Z,95429.13
2022-08-05T05:02:06.993Z,95422.41
2022-08-05T05:04:38.262Z,95410.63
2022-08-05T05:07:09.507Z,95410.03
2022-08-05T05:09:38.166Z,95420.16
2022-08-05T05:12:07.072Z,95414.63
2022-08-05T05:14:36.200Z,95419.41
2022-08-05T05:17:07.523Z,95406.91
2022-08-05T05:19:44.150Z,95409.19
2022-08-05T05:22:23.817Z,95408.09
2022-08-05T05:24:57.277Z,95405.97
2022-08-05T05:27:44.434Z,95397.78
2022-08-05T05:30:31.143Z,95393.72
2022-08-05T05:33:09.121Z,95395.91
2022-08-05T05:35:47.707Z,95395.41
2022-08-05T05:38:26.719Z,95396.47
2022-08-05T05:40:56.934Z,95393.28
2022-08-05T05:43:54.483Z,95388.38
2022-08-05T05:46:17.246Z,95394.84
2022-08-05T05:48:48.183Z,95399.66
2022-08-05T05:51:22.018Z,95398.63
2022-08-05T05:53:57.977Z,95397.66
2022-08-05T05:56:32.182Z,95335.38
2022-08-05T05:59:05.248Z,95394.97
2022-08-05T06:01:37.847Z,95389.16
2022-08-05T06:04:11.251Z,95288.44
2022-08-05T06:06:41.603Z,95246.03
2022-08-05T06:09:17.389Z,95395.56
2022-08-05T06:12:02.006Z,95398.09
2022-08-05T06:14:31.359Z,95395.81
2022-08-05T06:17:01.946Z,95398.56
2022-08-05T06:19:56.907Z,95396.53
2022-08-05T06:22:29.853Z,95388.94
2022-08-05T06:24:59.932Z,95391.03
2022-08-05T06:28:09.029Z,95383.69
2022-08-05T06:30:19.873Z,95392.75
2022-08-05T06:32:50.786Z,95383.09
2022-08-05T06:36:03.123Z,95380.28
2022-08-05T06:38:11.754Z,95383.66
2022-08-05T06:40:44.332Z,95379.81
2022-08-05T06:43:59.047Z,95381.00
2022-08-05T06:46:07.475Z,95371.44
2022-08-05T06:48:55.584Z,95366.59
2022-08-05T06:51:30.126Z,95373.69
2022-08-05T06:54:00.059Z,95369.63
2022-08-05T06:56:30.438Z,95358.78
2022-08-05T06:59:03.276Z,95364.06
2022-08-05T07:01:32.246Z,95363.69
2022-08-05T07:04:02.593Z,95360.25
2022-08-05T07:06:32.250Z,95358.97
2022-08-05T07:09:04.005Z,95348.69
2022-08-05T07:11:36.988Z,95350.25
2022-08-05T07:14:29.531Z,95355.41
2022-08-05T07:17:58.406Z,95344.22
2022-08-05T07:20:31.505Z,95346.56
2022-08-05T07:22:39.905Z,95353.22
2022-08-05T07:25:55.516Z,95346.84
2022-08-05T07:28:08.220Z,95344.47
2022-08-05T07:30:39.847Z,95327.06
2022-08-05T07:33:16.028Z,95344.22
2022-08-05T07:36:04.000Z,95338.00
2022-08-05T07:38:43.178Z,95331.75
2022-08-05T07:42:06.892Z,95330.47
2022-08-05T07:44:19.220Z,95338.72
2022-08-05T07:46:49.718Z,95271.13
2022-08-05T07:49:19.601Z,95323.88
2022-08-05T07:51:53.103Z,95319.84
2022-08-05T07:54:31.510Z,95313.84
2022-08-05T07:57:18.148Z,95324.03
2022-08-05T07:59:53.722Z,95317.09
2022-08-05T08:02:31.248Z,95308.84
2022-08-05T08:05:15.405Z,95307.47
2022-08-05T08:08:00.077Z,95309.59
2022-08-05T08:10:29.527Z,95316.56
2022-08-05T08:12:58.876Z,95313.34
2022-08-05T08:16:33.785Z,95286.63
2022-08-05T08:18:20.897Z,95308.47
2022-08-05T08:21:02.871Z,95300.72
2022-08-05T08:24:02.356Z,95302.25
2022-08-05T08:26:29.707Z,95298.69
2022-08-05T08:29:22.244Z,95291.88
2022-08-05T08:31:49.558Z,95285.84
2022-08-05T08:34:18.659Z,95272.50
2022-08-05T08:36:51.893Z,95289.47
2022-08-05T08:39:24.926Z,95289.28
2022-08-05T08:41:59.598Z,95284.16
2022-08-05T08:45:19.858Z,95258.81
2022-08-05T08:48:06.381Z,95267.38
2022-08-05T08:50:31.164Z,95197.84
2022-08-05T08:53:07.858Z,95262.44
2022-08-05T08:56:04.182Z,95267.13
2022-08-05T08:58:43.910Z,95266.25
2022-08-05T09:01:18.230Z,95266.59
2022-08-05T09:03:54.245Z,95260.03
2022-08-05T09:06:29.874Z,95252.25
2022-08-05T09:09:01.209Z,95244.59
2022-08-05T09:11:51.051Z,95232.09
2022-08-05T09:14:57.764Z,95235.28
2022-08-05T09:17:40.908Z,95234.09
2022-08-05T09:20:04.888Z,95224.63
2022-08-05T09:23:07.960Z,95222.97
2022-08-05T09:26:01.137Z,95201.59
2022-08-05T09:28:32.462Z,95214.69
2022-08-05T09:31:18.258Z,95219.38
2022-08-05T09:33:52.821Z,95209.50
2022-08-05T09:36:27.928Z,95211.88
2022-08-05T09:39:16.635Z,95205.31
2022-08-05T09:41:58.771Z,95210.81
2022-08-05T09:44:40.436Z,95200.81
2022-08-05T09:47:12.831Z,95192.22
2022-08-05T09:49:57.098Z,95191.22
2022-08-05T09:52:32.901Z,95191.56
2022-08-05T09:55:55.158Z,95191.19
2022-08-05T09:57:54.827Z,95190.56
2022-08-05T10:00:30.551Z,95178.38
2022-08-05T10:02:59.396Z,95179.53
2022-08-05T10:05:32.958Z,95156.13
2022-08-05T10:08:34.817Z,95175.66
2022-08-05T10:10:54.666Z,95151.53
2022-08-05T10:13:46.302Z,95162.53
2022-08-05T10:16:37.736Z,95131.00
2022-08-05T10:19:13.800Z,95161.44
2022-08-05T10:21:42.302Z,95165.81
2022-08-05T10:24:14.040Z,95143.63
2022-08-05T10:26:51.953Z,95154.88
2022-08-05T10:29:24.058Z,95151.59
2022-08-05T10:32:54.860Z,95145.09
2022-08-05T10:35:01.464Z,95151.22
2022-08-05T10:37:41.368Z,95141.63
2022-08-05T10:40:27.923Z,95154.47
2022-08-05T10:43:02.681Z,95148.66
2022-08-05T10:45:41.772Z,95143.28
2022-08-05T10:48:38.331Z,95132.69
2022-08-05T10:51:28.339Z,95132.84
2022-08-05T10:54:01.523Z,95127.69
2022-08-05T10:56:47.192Z,95127.31
2022-08-05T11:00:02.794Z,95134.66
2022-08-05T11:02:14.093Z,95123.56
2022-08-05T11:04:47.591Z,95121.78
2022-08-05T11:07:18.835Z,95131.47
2022-08-05T11:10:03.790Z,95123.53
2022-08-05T11:12:50.299Z,95126.84
2022-08-05T11:15:22.640Z,95123.72
2022-08-05T11:18:00.280Z,95114.72
2022-08-05T11:20:41.429Z,95121.63
2022-08-05T11:24:04.326Z,95120.97
2022-08-05T11:26:28.310Z,95121.84
2022-08-05T11:29:06.824Z,95121.47
2022-08-05T11:31:56.299Z,95118.44
2022-08-05T11:34:40.011Z,95117.94
2022-08-05T11:38:29.001Z,95114.63
2022-08-05T11:41:12.659Z,95117.91
2022-08-05T11:44:06.656Z,95093.59
2022-08-05T11:46:37.896Z,95101.69
2022-08-05T11:49:26.307Z,95103.31
2022-08-05T11:51:54.776Z,95103.19
2022-08-05T11:54:33.131Z,95090.19
2022-08-05T11:57:08.678Z,95095.94
2022-08-05T11:59:54.949Z,95095.06
2022-08-05T12:02:31.603Z,95096.91
2022-08-05T12:05:08.233Z,95078.31
2022-08-05T12:08:03.301Z,95092.91
2022-08-05T12:10:45.371Z,95034.56
2022-08-05T12:13:17.233Z,95060.88
2022-08-05T12:15:59.061Z,95086.44
2022-08-05T12:18:33.981Z,95085.56
2022-08-05T12:21:18.472Z,95082.38
2022-08-05T12:23:59.941Z,95079.88
2022-08-05T12:26:32.915Z,95079.69
2022-08-05T12:29:03.191Z,95077.31
2022-08-05T12:31:46.082Z,95074.63
2022-08-05T12:34:21.121Z,95073.72
2022-08-05T12:36:52.417Z,95077.34
2022-08-05T12:39:21.003Z,95070.06
2022-08-05T12:41:49.480Z,95072.94
2022-08-05T12:44:32.685Z,95072.78
2022-08-05T12:47:03.889Z,95034.91
2022-08-05T12:50:04.681Z,95066.97
2022-08-05T12:52:37.761Z,95070.13
2022-08-05T12:55:22.061Z,95071.97
2022-08-05T12:58:49.831Z,95032.75
2022-08-05T13:02:00.874Z,95063.53
2022-08-05T13:03:41.575Z,95050.19
2022-08-05T13:06:15.878Z,95050.25
2022-08-05T13:08:51.583Z,95049.72
2022-08-05T13:11:59.951Z,95046.34
2022-08-05T13:14:19.984Z,95049.91
2022-08-05T13:16:59.221Z,95054.22
2022-08-05T13:19:51.125Z,95053.19
2022-08-05T13:22:29.331Z,95050.81
2022-08-05T13:25:05.054Z,95042.78
2022-08-05T13:27:38.049Z,95058.88
2022-08-05T13:30:34.893Z,95036.38
2022-08-05T13:33:00.799Z,95034.97
2022-08-05T13:35:47.088Z,95021.06
2022-08-05T13:38:30.459Z,95029.97
2022-08-05T13:41:00.280Z,95023.59
2022-08-05T13:43:44.651Z,95022.16
2022-08-05T13:46:30.836Z,95023.88
2022-08-05T13:49:06.066Z,95017.56
2022-08-05T13:51:46.059Z,95023.03
2022-08-05T13:54:16.466Z,94972.13
2022-08-05T13:56:51.115Z,95011.91
2022-08-05T13:59:24.308Z,95016.50
2022-08-05T14:01:57.804Z,95012.03
2022-08-05T14:04:49.194Z,95003.78
2022-08-05T14:07:25.850Z,95004.81
2022-08-05T14:10:12.349Z,95005.81
2022-08-05T14:12:42.651Z,95002.34
2022-08-05T14:16:07.159Z,94997.13
2022-08-05T14:18:01.484Z,94999.53
2022-08-05T14:20:30.818Z,94996.09
2022-08-05T14:23:01.133Z,95003.72
2022-08-05T14:25:31.073Z,95002.00
2022-08-05T14:27:59.642Z,94949.97
2022-08-05T14:30:29.893Z,94988.25
2022-08-05T14:32:58.940Z,94984.22
2022-08-05T14:35:36.314Z,94984.81
2022-08-05T14:38:07.356Z,94958.00
2022-08-05T14:40:55.936Z,94981.97
2022-08-05T14:43:59.159Z,94981.72
2022-08-05T14:46:13.520Z,94983.31
2022-08-05T14:48:41.900Z,94977.09
2022-08-05T14:51:15.371Z,94987.88
2022-08-05T14:53:46.203Z,94989.38
2022-08-05T14:56:34.638Z,94982.47
2022-08-05T14:59:06.465Z,94979.28
2022-08-05T15:01:47.602Z,94924.66
2022-08-05T15:04:20.774Z,94975.63
2022-08-05T15:06:51.469Z,94978.50
2022-08-05T15:09:51.645Z,94987.63
2022-08-05T15:12:16.341Z,94974.81
2022-08-05T15:14:50.191Z,94970.34
2022-08-05T15:17:47.302Z,94923.72
2022-08-05T15:20:18.217Z,94977.50
2022-08-05T15:22:52.176Z,94971.84
2022-08-05T15:25:52.968Z,94977.22
2022-08-05T15:28:14.720Z,94976.63
2022-08-05T15:30:45.913Z,94971.91
2022-08-05T15:34:04.468Z,94977.56
2022-08-05T15:36:04.931Z,94963.34
2022-08-05T15:38:41.053Z,94972.41
2022-08-05T15:41:23.358Z,94958.59
2022-08-05T15:43:54.631Z,94953.84
2022-08-05T15:46:24.120Z,94961.44
2022-08-05T15:49:01.200Z,94963.19
2022-08-05T15:52:03.837Z,94954.41
2022-08-05T15:54:35.094Z,94961.88
2022-08-05T15:57:08.104Z,94952.03
2022-08-05T15:59:38.255Z,94954.16
2022-08-05T16:02:09.438Z,94956.50
2022-08-05T16:04:42.790Z,94950.63
2022-08-05T16:07:11.343Z,94949.72
2022-08-05T16:09:42.180Z,94941.38
2022-08-05T16:12:13.453Z,94960.50
2022-08-05T16:14:43.643Z,94912.28
2022-08-05T16:17:12.518Z,94962.41
2022-08-05T16:20:04.552Z,94967.66
2022-08-05T16:22:34.138Z,94939.84
2022-08-05T16:25:09.567Z,94972.06
2022-08-05T16:27:59.721Z,94889.38
2022-08-05T16:30:30.828Z,94972.06
2022-08-05T16:33:01.059Z,94980.97
2022-08-05T16:35:32.107Z,94978.97
2022-08-05T16:38:24.510Z,94976.91
2022-08-05T16:40:55.288Z,94970.03
2022-08-05T16:43:32.365Z,94976.59
2022-08-05T16:46:06.200Z,94978.00
2022-08-05T16:48:41.405Z,94985.28
2022-08-05T16:51:11.155Z,94991.59
2022-08-05T16:54:05.864Z,94985.53
2022-08-05T16:56:33.932Z,94988.50
2022-08-05T16:59:07.626Z,94992.69
2022-08-05T17:01:52.982Z,94997.44
2022-08-05T17:04:23.798Z,95004.31
2022-08-05T17:06:55.487Z,95007.84
2022-08-05T17:09:24.008Z,95003.31
2022-08-05T17:11:59.766Z,95002.47
2022-08-05T17:14:37.447Z,95013.22
2022-08-05T17:17:09.347Z,95011.97
2022-08-05T17:19:45.565Z,95010.50
2022-08-05T17:22:17.914Z,95021.88
2022-08-05T17:24:57.094Z,95025.00
2022-08-05T17:27:33.315Z,94998.75
2022-08-05T17:30:07.039Z,95017.47
2022-08-05T17:32:42.148Z,95021.75
2022-08-05T17:35:12.264Z,95004.63
2022-08-05T17:37:45.556Z,95029.16
2022-08-05T17:40:22.289Z,95017.06
2022-08-05T17:42:53.047Z,94964.38
2022-08-05T17:45:38.181Z,95026.75
2022-08-05T17:48:08.928Z,95028.34
2022-08-05T17:50:37.538Z,95015.47
2022-08-05T17:53:08.700Z,95039.25
2022-08-05T17:55:39.646Z,95047.78
2022-08-05T17:58:12.873Z,95038.72
2022-08-05T18:00:47.630Z,95040.13
2022-08-05T18:06:11.189Z,95054.41
2022-08-05T18:08:44.499Z,95059.84
2022-08-05T18:11:23.336Z,95066.06
2022-08-05T18:13:53.440Z,95070.69
2022-08-05T18:16:23.342Z,95067.31
2022-08-05T18:18:52.034Z,95070.94
2022-08-05T18:21:22.989Z,95080.09
2022-08-05T18:23:55.063Z,95067.31
2022-08-05T18:26:29.071Z,95013.31
2022-08-05T18:29:00.951Z,95080.09
2022-08-05T18:31:33.850Z,95085.16
2022-08-05T18:34:06.205Z,95092.56
2022-08-05T18:36:41.556Z,95090.97
2022-08-05T18:39:41.781Z,95092.91
2022-08-05T18:42:04.896Z,95097.59
2022-08-05T18:44:51.472Z,95097.66
2022-08-05T18:47:26.653Z,95090.84
2022-08-05T18:50:15.656Z,95093.97
2022-08-05T18:52:51.114Z,95101.72
2022-08-05T18:55:22.414Z,95097.94
2022-08-05T18:57:53.981Z,95099.00
2022-08-05T19:00:28.570Z,95096.88
2022-08-05T19:03:03.561Z,95092.09
2022-08-05T19:06:13.612Z,95104.19
2022-08-05T19:08:21.949Z,95102.94
2022-08-05T19:11:04.783Z,95111.47
2022-08-05T19:13:38.611Z,95113.59
2022-08-05T19:16:25.310Z,95107.47
2022-08-05T19:18:57.503Z,95093.84
2022-08-05T19:21:34.208Z,95104.63
2022-08-05T19:24:08.913Z,95100.00
2022-08-05T19:26:54.372Z,95106.16
2022-08-05T19:29:26.808Z,95047.25
2022-08-05T19:32:08.590Z,95096.63
2022-08-05T19:34:41.936Z,95098.63
2022-08-05T19:37:22.522Z,95105.94
2022-08-05T19:40:08.219Z,95096.03
2022-08-05T19:42:39.096Z,95095.78
2022-08-05T19:45:08.816Z,95095.06
2022-08-05T19:47:42.805Z,95105.59
2022-08-05T19:50:12.777Z,95103.28
2022-08-05T19:52:41.335Z,95102.66
2022-08-05T19:56:18.414Z,95106.09
2022-08-05T19:58:19.361Z,95103.50
2022-08-05T20:00:48.410Z,95110.53
2022-08-05T20:03:16.862Z,95106.69
2022-08-05T20:05:51.193Z,95100.56
2022-08-05T20:08:20.191Z,95093.78
2022-08-05T20:10:49.742Z,95099.34
2022-08-05T20:13:30.154Z,95096.97
2022-08-05T20:16:07.353Z,95093.88
2022-08-05T20:18:36.557Z,95105.22
2022-08-05T20:21:07.514Z,95076.56
2022-08-05T20:23:39.453Z,95108.41
2022-08-05T20:26:19.786Z,95104.66
2022-08-05T20:28:50.794Z,95103.84
2022-08-05T20:31:21.711Z,95097.63
2022-08-05T20:33:56.750Z,95102.66
2022-08-05T20:36:27.030Z,95103.72
2022-08-05T20:38:57.967Z,95102.53
2022-08-05T20:41:43.335Z,95098.56
2022-08-05T20:44:19.175Z,95102.13
2022-08-05T20:46:58.948Z,95109.13
2022-08-05T20:49:27.250Z,95105.53
2022-08-05T20:51:58.092Z,95110.19
2022-08-05T20:54:43.080Z,95066.81
2022-08-05T20:57:24.625Z,95108.72
2022-08-05T21:00:21.155Z,95110.59
2022-08-05T21:03:01.261Z,95102.94
2022-08-05T21:05:47.883Z,95041.44
2022-08-05T21:08:20.042Z,95121.38
2022-08-05T21:10:49.417Z,95124.75
2022-08-05T21:13:26.417Z,95115.31
2022-08-05T21:16:07.430Z,95121.69
2022-08-05T21:18:36.102Z,95118.22
2022-08-05T21:21:04.801Z,95116.25
2022-08-05T21:23:37.235Z,95120.03
2022-08-05T21:26:12.248Z,95126.63
2022-08-05T21:28:41.089Z,95129.34
2022-08-05T21:31:16.645Z,95132.41
2022-08-05T21:33:47.538Z,95126.97
2022-08-05T21:36:19.047Z,95124.31
2022-08-05T21:38:57.671Z,95121.09
2022-08-05T21:41:33.938Z,95122.63
2022-08-05T21:44:04.255Z,95127.13
2022-08-05T21:46:34.620Z,95132.94
2022-08-05T21:49:04.759Z,95128.78
2022-08-05T21:52:22.182Z,95119.75
2022-08-05T21:54:27.915Z,95130.31
2022-08-05T21:57:29.196Z,95068.47
2022-08-05T22:00:03.980Z,95126.25
2022-08-05T22:02:35.233Z,95127.66
2022-08-05T22:05:04.629Z,95122.56
2022-08-05T22:07:40.521Z,95115.94
2022-08-05T22:10:27.105Z,95134.75
2022-08-05T22:12:57.127Z,95126.25
2022-08-05T22:16:00.750Z,95128.69
2022-08-05T22:18:15.276Z,95123.63
2022-08-05T22:20:48.073Z,95119.97
2022-08-05T22:24:02.867Z,95133.53
2022-08-05T22:26:49.752Z,95123.41
2022-08-05T22:29:26.244Z,95126.03
2022-08-05T22:31:59.628Z,95121.19
2022-08-05T22:34:32.273Z,95124.38
2022-08-05T22:37:03.967Z,95129.25
2022-08-05T22:39:34.622Z,95128.38
2022-08-05T22:42:12.734Z,95130.75
2022-08-05T22:44:56.431Z,95129.91
2022-08-05T22:47:28.937Z,95133.81
2022-08-05T22:50:20.986Z,95134.59
2022-08-05T22:52:49.450Z,95124.28
2022-08-05T22:55:18.886Z,95124.59
2022-08-05T22:57:50.460Z,95056.00
2022-08-05T23:00:20.543Z,95123.59
2022-08-05T23:02:50.218Z,95074.16
2022-08-05T23:05:21.874Z,95127.72
2022-08-05T23:07:51.518Z,95124.72
2022-08-05T23:10:23.372Z,95127.22
2022-08-05T23:12:55.707Z,95125.69
2022-08-05T23:15:27.166Z,95127.13
2022-08-05T23:18:00.531Z,95137.22
2022-08-05T23:20:32.513Z,95113.09
2022-08-05T23:23:03.452Z,95127.50
2022-08-05T23:25:53.687Z,95130.91
2022-08-05T23:28:29.105Z,95126.94
2022-08-05T23:31:07.100Z,95123.88
2022-08-05T23:34:05.505Z,95119.97
2022-08-05T23:36:38.765Z,95120.88
2022-08-05T23:39:17.303Z,95131.50
2022-08-05T23:42:01.189Z,95124.88
2022-08-05T23:44:32.473Z,95131.50
2022-08-05T23:47:02.555Z,95128.84
2022-08-05T23:49:43.493Z,95130.78
2022-08-05T23:52:30.820Z,95129.81
2022-08-05T23:55:02.357Z,95122.63
2022-08-05T23:57:33.961Z,95129.88
